Terminal Aerodrome Forecast
Issued by NWS Jackson, KY

Home | Current Version | Previous Version | Text Only | Print | Product List | Glossary On
Versions: 1 2 3 4 5 6 7 8 9 10 11 12 13 14 15
415
FTUS43 KJKL 271720
TAFJKL
TAF
KJKL 271720Z 2718/2818 VRB03KT P6SM VCTS BKN040CB
     FM280000 VRB03KT P6SM BKN110
     FM281500 VRB03KT P6SM VCTS BKN050CB=

USA.gov is the U.S. government's official web portal to all federal, state and local government web resources and services.